Oak Glen, California
Current Conditions -  °F | °C
As of 2:58 PM on Saturday 20 Dec 2014 (Local Time) from KRIV Reporting Station
Broken Clouds Broken Clouds  
Wind Chill: 57°   Ceiling: 18000
Heat Index: 57°   Visibility: 10mi
Dew Point: 48°   Wind: 0mph
Humidity: 73%   Direction: NA
Pressure: 30.11"   Gusts: NA
Location:  34.036°N, 117.017°W
Report Text: KRIV 202258Z 00000KT 10SM BKN180 BKN250 14/09 A3011 RMK AO2A SLPNO T01370090
Loading
Personal Weather Stations






























Interactive Weather Map New forecast layout! Learn more

10-Day Weather Forecast

Advertisements
Track Severe Weather on mobile